CheckWX is a tool to help pilots better visualize weather data.  It is not intended as a substitute for an official pre-flight weather briefing.

23:55:23 UTC

KSEZ METAR
Sedona Airport
Sedona, Arizona, USA
Current

20 mins ago

KSEZ 012335Z AUTO 17015G21KT 10SM CLR 20/00 A2984 RMK AO2
Observed
Apr-1 @ 23:35 UTC
Wind
  • 170° at 15 KTS
  • Gusting to 21 KTS
Visibility
10 SM
Flight Rules
VFR
Cloud Levels
  • Clear skies
Temperature
20°C / 68°F
Dewpoint
C / 32°F
Humidity
26%
Altimeter
29.84" Hg
Pressure
1010.52 hPa
Previous

40 mins ago

KSEZ 012315Z AUTO 18015G22KT 10SM CLR 20/00 A2983 RMK AO2
Observed
Apr-1 @ 23:15 UTC
Wind
  • 180° at 15 KTS
  • Gusting to 22 KTS
Visibility
10 SM
Flight Rules
VFR
Cloud Levels
  • Clear skies
Temperature
20°C / 68°F
Dewpoint
C / 32°F
Humidity
26%
Altimeter
29.83" Hg
Pressure
1010.12 hPa
Previous

60 mins ago

KSEZ 012255Z AUTO 15016G22KT 10SM CLR 20/00 A2983 RMK AO2
Observed
Apr-1 @ 22:55 UTC
Wind
  • 150° at 16 KTS
  • Gusting to 22 KTS
Visibility
10 SM
Flight Rules
VFR
Cloud Levels
  • Clear skies
Temperature
20°C / 68°F
Dewpoint
C / 32°F
Humidity
26%
Altimeter
29.83" Hg
Pressure
1010.12 hPa